sensor_id;sensor_type;location;lat;lon;timestamp;P1;durP1;ratioP1;P2;durP2;ratioP2
59770;SDS011;45649;53.014;6.600;2022-12-18T00:00:11;63.57;;;31.97;;
59770;SDS011;45649;53.014;6.600;2022-12-18T00:02:38;64.33;;;32.53;;
59770;SDS011;45649;53.014;6.600;2022-12-18T00:05:04;61.80;;;31.57;;
59770;SDS011;45649;53.014;6.600;2022-12-18T00:07:30;62.93;;;32.47;;
59770;SDS011;45649;53.014;6.600;2022-12-18T00:09:56;64.37;;;33.07;;
59770;SDS011;45649;53.014;6.600;2022-12-18T00:12:22;61.03;;;33.23;;
59770;SDS011;45649;53.014;6.600;2022-12-18T00:14:48;62.03;;;33.63;;
59770;SDS011;45649;53.014;6.600;2022-12-18T00:17:14;64.30;;;32.50;;
59770;SDS011;45649;53.014;6.600;2022-12-18T00:19:40;66.53;;;32.80;;
59770;SDS011;45649;53.014;6.600;2022-12-18T00:22:06;63.77;;;31.93;;
59770;SDS011;45649;53.014;6.600;2022-12-18T00:24:33;61.23;;;32.43;;
59770;SDS011;45649;53.014;6.600;2022-12-18T00:27:00;65.20;;;33.53;;
59770;SDS011;45649;53.014;6.600;2022-12-18T00:29:26;72.97;;;35.50;;
59770;SDS011;45649;53.014;6.600;2022-12-18T00:31:52;65.93;;;33.07;;
59770;SDS011;45649;53.014;6.600;2022-12-18T00:34:18;65.50;;;33.20;;
59770;SDS011;45649;53.014;6.600;2022-12-18T00:36:46;65.43;;;33.23;;
59770;SDS011;45649;53.014;6.600;2022-12-18T00:39:13;62.93;;;32.33;;
59770;SDS011;45649;53.014;6.600;2022-12-18T00:41:39;66.20;;;32.73;;
59770;SDS011;45649;53.014;6.600;2022-12-18T00:44:24;65.50;;;33.33;;
59770;SDS011;45649;53.014;6.600;2022-12-18T00:46:50;67.83;;;33.27;;
59770;SDS011;45649;53.014;6.600;2022-12-18T00:49:17;66.33;;;32.43;;
59770;SDS011;45649;53.014;6.600;2022-12-18T00:51:43;66.27;;;32.17;;
59770;SDS011;45649;53.014;6.600;2022-12-18T00:54:10;70.27;;;33.77;;
59770;SDS011;45649;53.014;6.600;2022-12-18T00:56:37;65.87;;;33.57;;
59770;SDS011;45649;53.014;6.600;2022-12-18T00:59:03;64.83;;;33.20;;
59770;SDS011;45649;53.014;6.600;2022-12-18T01:01:29;75.57;;;34.80;;
59770;SDS011;45649;53.014;6.600;2022-12-18T01:03:56;62.33;;;32.00;;
59770;SDS011;45649;53.014;6.600;2022-12-18T01:06:22;66.80;;;32.07;;
59770;SDS011;45649;53.014;6.600;2022-12-18T01:08:48;64.87;;;33.17;;
59770;SDS011;45649;53.014;6.600;2022-12-18T01:11:16;67.97;;;32.40;;
59770;SDS011;45649;53.014;6.600;2022-12-18T01:13:43;70.97;;;33.63;;
59770;SDS011;45649;53.014;6.600;2022-12-18T01:16:11;65.00;;;32.27;;
59770;SDS011;45649;53.014;6.600;2022-12-18T01:18:37;63.80;;;31.83;;
59770;SDS011;45649;53.014;6.600;2022-12-18T01:21:11;68.40;;;33.50;;
59770;SDS011;45649;53.014;6.600;2022-12-18T01:23:37;63.77;;;32.30;;
59770;SDS011;45649;53.014;6.600;2022-12-18T01:26:12;65.67;;;33.27;;
59770;SDS011;45649;53.014;6.600;2022-12-18T01:28:38;72.53;;;34.67;;
59770;SDS011;45649;53.014;6.600;2022-12-18T01:31:09;67.53;;;32.27;;
59770;SDS011;45649;53.014;6.600;2022-12-18T01:33:35;67.53;;;32.70;;
59770;SDS011;45649;53.014;6.600;2022-12-18T01:36:01;66.83;;;33.27;;
59770;SDS011;45649;53.014;6.600;2022-12-18T01:38:28;69.43;;;32.43;;
59770;SDS011;45649;53.014;6.600;2022-12-18T01:40:57;70.40;;;34.10;;
59770;SDS011;45649;53.014;6.600;2022-12-18T01:43:40;68.50;;;32.70;;
59770;SDS011;45649;53.014;6.600;2022-12-18T01:46:06;66.10;;;32.53;;
59770;SDS011;45649;53.014;6.600;2022-12-18T01:48:33;72.63;;;34.33;;
59770;SDS011;45649;53.014;6.600;2022-12-18T01:50:59;70.47;;;34.30;;
59770;SDS011;45649;53.014;6.600;2022-12-18T01:53:25;75.57;;;34.67;;
59770;SDS011;45649;53.014;6.600;2022-12-18T01:55:52;73.67;;;35.87;;
59770;SDS011;45649;53.014;6.600;2022-12-18T01:58:20;66.80;;;34.00;;
59770;SDS011;45649;53.014;6.600;2022-12-18T02:00:48;63.03;;;32.90;;
59770;SDS011;45649;53.014;6.600;2022-12-18T02:03:15;69.47;;;33.53;;
59770;SDS011;45649;53.014;6.600;2022-12-18T02:05:44;71.87;;;34.73;;
59770;SDS011;45649;53.014;6.600;2022-12-18T02:08:14;69.40;;;34.33;;
59770;SDS011;45649;53.014;6.600;2022-12-18T02:13:30;72.70;;;34.77;;
59770;SDS011;45649;53.014;6.600;2022-12-18T02:16:00;72.77;;;33.90;;
59770;SDS011;45649;53.014;6.600;2022-12-18T02:18:28;70.70;;;35.10;;
59770;SDS011;45649;53.014;6.600;2022-12-18T02:23:41;71.70;;;35.03;;
59770;SDS011;45649;53.014;6.600;2022-12-18T02:26:12;73.80;;;36.03;;
59770;SDS011;45649;53.014;6.600;2022-12-18T02:28:41;76.70;;;36.27;;
59770;SDS011;45649;53.014;6.600;2022-12-18T02:31:09;69.00;;;35.00;;
59770;SDS011;45649;53.014;6.600;2022-12-18T02:33:37;72.90;;;35.70;;
59770;SDS011;45649;53.014;6.600;2022-12-18T02:36:04;72.30;;;35.53;;
59770;SDS011;45649;53.014;6.600;2022-12-18T02:38:31;70.00;;;35.93;;
59770;SDS011;45649;53.014;6.600;2022-12-18T02:40:58;72.03;;;36.00;;
59770;SDS011;45649;53.014;6.600;2022-12-18T02:43:25;73.53;;;35.77;;
59770;SDS011;45649;53.014;6.600;2022-12-18T02:45:55;77.53;;;36.80;;
59770;SDS011;45649;53.014;6.600;2022-12-18T02:48:27;72.63;;;34.97;;
59770;SDS011;45649;53.014;6.600;2022-12-18T02:51:05;75.60;;;36.07;;
59770;SDS011;45649;53.014;6.600;2022-12-18T02:53:36;69.97;;;35.50;;
59770;SDS011;45649;53.014;6.600;2022-12-18T02:58:47;70.23;;;35.43;;
59770;SDS011;45649;53.014;6.600;2022-12-18T03:04:01;71.30;;;35.57;;
59770;SDS011;45649;53.014;6.600;2022-12-18T03:06:39;73.63;;;34.60;;
59770;SDS011;45649;53.014;6.600;2022-12-18T03:09:07;72.23;;;33.97;;
59770;SDS011;45649;53.014;6.600;2022-12-18T03:11:34;66.10;;;33.07;;
59770;SDS011;45649;53.014;6.600;2022-12-18T03:14:21;70.07;;;33.77;;
59770;SDS011;45649;53.014;6.600;2022-12-18T03:16:50;69.90;;;34.50;;
59770;SDS011;45649;53.014;6.600;2022-12-18T03:19:17;73.00;;;34.97;;
59770;SDS011;45649;53.014;6.600;2022-12-18T03:21:46;71.13;;;33.33;;
59770;SDS011;45649;53.014;6.600;2022-12-18T03:24:13;68.23;;;33.87;;
59770;SDS011;45649;53.014;6.600;2022-12-18T03:26:41;70.30;;;33.23;;
59770;SDS011;45649;53.014;6.600;2022-12-18T03:29:09;67.50;;;32.27;;
59770;SDS011;45649;53.014;6.600;2022-12-18T03:31:39;67.40;;;33.03;;
59770;SDS011;45649;53.014;6.600;2022-12-18T03:34:12;69.67;;;32.63;;
59770;SDS011;45649;53.014;6.600;2022-12-18T03:36:40;65.77;;;32.63;;
59770;SDS011;45649;53.014;6.600;2022-12-18T03:39:06;68.83;;;32.27;;
59770;SDS011;45649;53.014;6.600;2022-12-18T03:44:08;66.43;;;32.67;;
59770;SDS011;45649;53.014;6.600;2022-12-18T03:49:13;61.60;;;30.97;;
59770;SDS011;45649;53.014;6.600;2022-12-18T03:51:42;67.20;;;31.73;;
59770;SDS011;45649;53.014;6.600;2022-12-18T03:54:09;65.50;;;32.57;;
59770;SDS011;45649;53.014;6.600;2022-12-18T03:56:37;70.20;;;32.73;;
59770;SDS011;45649;53.014;6.600;2022-12-18T03:59:04;74.60;;;33.97;;
59770;SDS011;45649;53.014;6.600;2022-12-18T04:01:32;68.77;;;32.20;;
59770;SDS011;45649;53.014;6.600;2022-12-18T04:04:00;69.30;;;33.20;;
59770;SDS011;45649;53.014;6.600;2022-12-18T04:06:27;70.70;;;32.97;;
59770;SDS011;45649;53.014;6.600;2022-12-18T04:08:55;74.40;;;34.17;;
59770;SDS011;45649;53.014;6.600;2022-12-18T04:11:22;66.07;;;31.80;;
59770;SDS011;45649;53.014;6.600;2022-12-18T04:13:48;68.37;;;32.90;;
59770;SDS011;45649;53.014;6.600;2022-12-18T04:16:14;64.30;;;31.83;;
59770;SDS011;45649;53.014;6.600;2022-12-18T04:18:40;66.33;;;32.63;;
59770;SDS011;45649;53.014;6.600;2022-12-18T04:21:06;68.00;;;31.97;;
59770;SDS011;45649;53.014;6.600;2022-12-18T04:23:32;64.00;;;32.23;;
59770;SDS011;45649;53.014;6.600;2022-12-18T04:25:58;62.03;;;30.73;;
59770;SDS011;45649;53.014;6.600;2022-12-18T04:28:25;66.47;;;32.03;;
59770;SDS011;45649;53.014;6.600;2022-12-18T04:30:51;65.73;;;31.27;;
59770;SDS011;45649;53.014;6.600;2022-12-18T04:33:17;65.07;;;30.97;;
59770;SDS011;45649;53.014;6.600;2022-12-18T04:35:43;59.90;;;30.63;;
59770;SDS011;45649;53.014;6.600;2022-12-18T04:38:09;62.53;;;30.27;;
59770;SDS011;45649;53.014;6.600;2022-12-18T04:40:36;59.77;;;29.93;;
59770;SDS011;45649;53.014;6.600;2022-12-18T04:43:03;59.13;;;29.17;;
59770;SDS011;45649;53.014;6.600;2022-12-18T04:45:32;62.70;;;30.03;;
59770;SDS011;45649;53.014;6.600;2022-12-18T04:47:59;56.33;;;28.57;;
59770;SDS011;45649;53.014;6.600;2022-12-18T04:50:25;50.80;;;27.80;;
59770;SDS011;45649;53.014;6.600;2022-12-18T04:52:51;52.87;;;27.67;;
59770;SDS011;45649;53.014;6.600;2022-12-18T04:55:17;57.07;;;28.43;;
59770;SDS011;45649;53.014;6.600;2022-12-18T04:57:43;54.20;;;27.43;;
59770;SDS011;45649;53.014;6.600;2022-12-18T05:00:10;50.33;;;27.33;;
59770;SDS011;45649;53.014;6.600;2022-12-18T05:02:36;47.13;;;26.10;;
59770;SDS011;45649;53.014;6.600;2022-12-18T05:05:02;49.40;;;26.63;;
59770;SDS011;45649;53.014;6.600;2022-12-18T05:07:29;47.83;;;25.60;;
59770;SDS011;45649;53.014;6.600;2022-12-18T05:09:55;42.93;;;25.10;;
59770;SDS011;45649;53.014;6.600;2022-12-18T05:12:21;45.93;;;25.63;;
59770;SDS011;45649;53.014;6.600;2022-12-18T05:14:47;45.43;;;24.80;;
59770;SDS011;45649;53.014;6.600;2022-12-18T05:17:13;47.40;;;24.97;;
59770;SDS011;45649;53.014;6.600;2022-12-18T05:19:39;49.03;;;26.00;;
59770;SDS011;45649;53.014;6.600;2022-12-18T05:22:05;48.57;;;25.03;;
59770;SDS011;45649;53.014;6.600;2022-12-18T05:24:31;43.10;;;24.07;;
59770;SDS011;45649;53.014;6.600;2022-12-18T05:26:57;42.53;;;23.37;;
59770;SDS011;45649;53.014;6.600;2022-12-18T05:29:24;40.87;;;23.40;;
59770;SDS011;45649;53.014;6.600;2022-12-18T05:31:50;40.30;;;23.30;;
59770;SDS011;45649;53.014;6.600;2022-12-18T05:34:16;38.77;;;22.37;;
59770;SDS011;45649;53.014;6.600;2022-12-18T05:36:42;42.83;;;23.70;;
59770;SDS011;45649;53.014;6.600;2022-12-18T05:39:08;42.80;;;24.37;;
59770;SDS011;45649;53.014;6.600;2022-12-18T05:41:35;44.57;;;23.87;;
59770;SDS011;45649;53.014;6.600;2022-12-18T05:44:01;41.00;;;23.33;;
59770;SDS011;45649;53.014;6.600;2022-12-18T05:46:27;42.40;;;23.20;;
59770;SDS011;45649;53.014;6.600;2022-12-18T05:48:54;41.57;;;23.17;;
59770;SDS011;45649;53.014;6.600;2022-12-18T05:51:21;38.37;;;23.27;;
59770;SDS011;45649;53.014;6.600;2022-12-18T05:53:47;40.67;;;23.00;;
59770;SDS011;45649;53.014;6.600;2022-12-18T05:56:15;40.23;;;23.33;;
59770;SDS011;45649;53.014;6.600;2022-12-18T05:58:41;39.17;;;22.97;;
59770;SDS011;45649;53.014;6.600;2022-12-18T06:01:08;38.27;;;22.33;;
59770;SDS011;45649;53.014;6.600;2022-12-18T06:03:35;38.43;;;22.70;;
59770;SDS011;45649;53.014;6.600;2022-12-18T06:06:01;36.47;;;21.50;;
59770;SDS011;45649;53.014;6.600;2022-12-18T06:08:27;35.83;;;21.30;;
59770;SDS011;45649;53.014;6.600;2022-12-18T06:10:53;40.30;;;23.07;;
59770;SDS011;45649;53.014;6.600;2022-12-18T06:13:20;38.97;;;21.57;;
59770;SDS011;45649;53.014;6.600;2022-12-18T06:15:46;39.00;;;22.93;;
59770;SDS011;45649;53.014;6.600;2022-12-18T06:18:12;39.23;;;22.53;;
59770;SDS011;45649;53.014;6.600;2022-12-18T06:20:38;36.67;;;22.20;;
59770;SDS011;45649;53.014;6.600;2022-12-18T06:23:06;37.13;;;21.30;;
59770;SDS011;45649;53.014;6.600;2022-12-18T06:25:33;35.67;;;22.53;;
59770;SDS011;45649;53.014;6.600;2022-12-18T06:28:02;33.97;;;21.13;;
59770;SDS011;45649;53.014;6.600;2022-12-18T06:30:29;34.23;;;20.90;;
59770;SDS011;45649;53.014;6.600;2022-12-18T06:32:55;38.07;;;21.60;;
59770;SDS011;45649;53.014;6.600;2022-12-18T06:35:21;35.40;;;20.83;;
59770;SDS011;45649;53.014;6.600;2022-12-18T06:37:48;39.50;;;21.23;;
59770;SDS011;45649;53.014;6.600;2022-12-18T06:40:14;33.97;;;21.50;;
59770;SDS011;45649;53.014;6.600;2022-12-18T06:42:41;34.97;;;21.37;;
59770;SDS011;45649;53.014;6.600;2022-12-18T06:45:07;34.80;;;21.43;;
59770;SDS011;45649;53.014;6.600;2022-12-18T06:47:34;36.33;;;21.33;;
59770;SDS011;45649;53.014;6.600;2022-12-18T06:50:00;33.63;;;22.00;;
59770;SDS011;45649;53.014;6.600;2022-12-18T06:52:26;34.50;;;20.33;;
59770;SDS011;45649;53.014;6.600;2022-12-18T06:54:52;35.20;;;21.60;;
59770;SDS011;45649;53.014;6.600;2022-12-18T06:57:18;36.23;;;21.63;;
59770;SDS011;45649;53.014;6.600;2022-12-18T06:59:44;36.57;;;21.80;;
59770;SDS011;45649;53.014;6.600;2022-12-18T07:02:11;37.13;;;21.17;;
59770;SDS011;45649;53.014;6.600;2022-12-18T07:04:38;40.30;;;22.30;;
59770;SDS011;45649;53.014;6.600;2022-12-18T07:07:04;35.57;;;21.47;;
59770;SDS011;45649;53.014;6.600;2022-12-18T07:09:30;37.00;;;21.87;;
59770;SDS011;45649;53.014;6.600;2022-12-18T07:11:56;34.93;;;21.37;;
59770;SDS011;45649;53.014;6.600;2022-12-18T07:14:22;37.22;;;25.55;;
59770;SDS011;45649;53.014;6.600;2022-12-18T07:16:48;35.63;;;21.07;;
59770;SDS011;45649;53.014;6.600;2022-12-18T07:19:14;32.53;;;20.97;;
59770;SDS011;45649;53.014;6.600;2022-12-18T07:21:40;31.90;;;20.10;;
59770;SDS011;45649;53.014;6.600;2022-12-18T07:24:07;32.00;;;19.30;;
59770;SDS011;45649;53.014;6.600;2022-12-18T07:26:33;33.30;;;20.87;;
59770;SDS011;45649;53.014;6.600;2022-12-18T07:28:59;32.30;;;20.03;;
59770;SDS011;45649;53.014;6.600;2022-12-18T07:31:26;32.33;;;20.10;;
59770;SDS011;45649;53.014;6.600;2022-12-18T07:33:52;30.37;;;19.40;;
59770;SDS011;45649;53.014;6.600;2022-12-18T07:36:18;29.80;;;19.50;;
59770;SDS011;45649;53.014;6.600;2022-12-18T07:38:46;31.27;;;19.97;;
59770;SDS011;45649;53.014;6.600;2022-12-18T07:41:13;28.67;;;18.77;;
59770;SDS011;45649;53.014;6.600;2022-12-18T07:43:40;32.23;;;19.87;;
59770;SDS011;45649;53.014;6.600;2022-12-18T07:46:06;29.00;;;19.00;;
59770;SDS011;45649;53.014;6.600;2022-12-18T07:48:33;30.50;;;19.53;;
59770;SDS011;45649;53.014;6.600;2022-12-18T07:51:03;31.00;;;19.03;;
59770;SDS011;45649;53.014;6.600;2022-12-18T07:53:30;27.83;;;19.10;;
59770;SDS011;45649;53.014;6.600;2022-12-18T07:56:00;29.03;;;18.53;;
59770;SDS011;45649;53.014;6.600;2022-12-18T07:58:27;32.10;;;19.90;;
59770;SDS011;45649;53.014;6.600;2022-12-18T08:00:53;28.80;;;18.47;;
59770;SDS011;45649;53.014;6.600;2022-12-18T08:03:19;28.53;;;18.83;;
59770;SDS011;45649;53.014;6.600;2022-12-18T08:05:45;32.10;;;19.57;;
59770;SDS011;45649;53.014;6.600;2022-12-18T08:08:11;31.33;;;20.07;;
59770;SDS011;45649;53.014;6.600;2022-12-18T08:10:37;28.23;;;18.57;;
59770;SDS011;45649;53.014;6.600;2022-12-18T08:13:04;27.80;;;18.37;;
59770;SDS011;45649;53.014;6.600;2022-12-18T08:15:30;31.47;;;18.97;;
59770;SDS011;45649;53.014;6.600;2022-12-18T08:17:56;27.40;;;18.03;;
59770;SDS011;45649;53.014;6.600;2022-12-18T08:20:23;25.07;;;17.40;;
59770;SDS011;45649;53.014;6.600;2022-12-18T08:22:49;27.17;;;18.30;;
59770;SDS011;45649;53.014;6.600;2022-12-18T08:25:15;28.00;;;18.27;;
59770;SDS011;45649;53.014;6.600;2022-12-18T08:27:41;27.00;;;17.33;;
59770;SDS011;45649;53.014;6.600;2022-12-18T08:30:07;24.77;;;17.10;;
59770;SDS011;45649;53.014;6.600;2022-12-18T08:32:34;26.77;;;18.30;;
59770;SDS011;45649;53.014;6.600;2022-12-18T08:35:00;25.40;;;17.30;;
59770;SDS011;45649;53.014;6.600;2022-12-18T08:37:26;23.83;;;16.93;;
59770;SDS011;45649;53.014;6.600;2022-12-18T08:39:53;24.60;;;16.07;;
59770;SDS011;45649;53.014;6.600;2022-12-18T08:42:19;24.20;;;16.67;;
59770;SDS011;45649;53.014;6.600;2022-12-18T08:45:04;23.27;;;16.17;;
59770;SDS011;45649;53.014;6.600;2022-12-18T08:47:30;25.23;;;16.50;;
59770;SDS011;45649;53.014;6.600;2022-12-18T08:49:56;22.80;;;15.43;;
59770;SDS011;45649;53.014;6.600;2022-12-18T08:52:23;21.20;;;15.93;;
59770;SDS011;45649;53.014;6.600;2022-12-18T08:54:50;23.53;;;15.50;;
59770;SDS011;45649;53.014;6.600;2022-12-18T08:57:16;20.83;;;14.83;;
59770;SDS011;45649;53.014;6.600;2022-12-18T08:59:42;19.90;;;14.57;;
59770;SDS011;45649;53.014;6.600;2022-12-18T09:02:10;24.63;;;15.60;;
59770;SDS011;45649;53.014;6.600;2022-12-18T09:04:36;19.60;;;14.90;;
59770;SDS011;45649;53.014;6.600;2022-12-18T09:07:02;20.20;;;15.27;;
59770;SDS011;45649;53.014;6.600;2022-12-18T09:09:28;22.57;;;14.87;;
59770;SDS011;45649;53.014;6.600;2022-12-18T09:11:54;21.70;;;14.27;;
59770;SDS011;45649;53.014;6.600;2022-12-18T09:14:20;19.77;;;14.80;;
59770;SDS011;45649;53.014;6.600;2022-12-18T09:16:46;19.17;;;14.30;;
59770;SDS011;45649;53.014;6.600;2022-12-18T09:19:12;22.47;;;14.90;;
59770;SDS011;45649;53.014;6.600;2022-12-18T09:21:38;20.47;;;14.77;;
59770;SDS011;45649;53.014;6.600;2022-12-18T09:24:05;21.53;;;15.53;;
59770;SDS011;45649;53.014;6.600;2022-12-18T09:26:31;21.93;;;15.27;;
59770;SDS011;45649;53.014;6.600;2022-12-18T09:28:58;19.67;;;14.83;;
59770;SDS011;45649;53.014;6.600;2022-12-18T09:31:24;19.43;;;14.83;;
59770;SDS011;45649;53.014;6.600;2022-12-18T09:33:51;18.87;;;14.50;;
59770;SDS011;45649;53.014;6.600;2022-12-18T09:36:17;20.97;;;13.93;;
59770;SDS011;45649;53.014;6.600;2022-12-18T09:38:44;19.40;;;14.33;;
59770;SDS011;45649;53.014;6.600;2022-12-18T09:43:47;17.50;;;13.70;;
59770;SDS011;45649;53.014;6.600;2022-12-18T09:46:18;18.87;;;13.00;;
59770;SDS011;45649;53.014;6.600;2022-12-18T09:48:46;17.17;;;12.83;;
59770;SDS011;45649;53.014;6.600;2022-12-18T09:51:15;15.73;;;11.97;;
59770;SDS011;45649;53.014;6.600;2022-12-18T09:53:43;16.77;;;12.10;;
59770;SDS011;45649;53.014;6.600;2022-12-18T09:56:16;16.37;;;11.53;;
59770;SDS011;45649;53.014;6.600;2022-12-18T09:58:45;16.87;;;11.93;;
59770;SDS011;45649;53.014;6.600;2022-12-18T10:01:14;14.67;;;11.53;;
59770;SDS011;45649;53.014;6.600;2022-12-18T10:03:41;12.13;;;10.00;;
59770;SDS011;45649;53.014;6.600;2022-12-18T10:06:15;13.17;;;10.53;;
59770;SDS011;45649;53.014;6.600;2022-12-18T10:13:53;14.77;;;10.43;;
59770;SDS011;45649;53.014;6.600;2022-12-18T10:16:31;13.03;;;9.40;;
59770;SDS011;45649;53.014;6.600;2022-12-18T10:26:48;8.93;;;7.93;;
59770;SDS011;45649;53.014;6.600;2022-12-18T10:29:16;10.27;;;8.33;;
59770;SDS011;45649;53.014;6.600;2022-12-18T10:31:42;10.37;;;8.57;;
59770;SDS011;45649;53.014;6.600;2022-12-18T10:34:11;9.30;;;8.10;;
59770;SDS011;45649;53.014;6.600;2022-12-18T10:36:37;8.80;;;7.90;;
59770;SDS011;45649;53.014;6.600;2022-12-18T10:39:23;10.47;;;7.53;;
59770;SDS011;45649;53.014;6.600;2022-12-18T10:41:51;8.83;;;7.73;;
59770;SDS011;45649;53.014;6.600;2022-12-18T10:44:18;7.93;;;7.00;;
59770;SDS011;45649;53.014;6.600;2022-12-18T10:46:45;7.97;;;7.17;;
59770;SDS011;45649;53.014;6.600;2022-12-18T10:49:19;7.27;;;6.43;;
59770;SDS011;45649;53.014;6.600;2022-12-18T10:51:47;6.97;;;6.27;;
59770;SDS011;45649;53.014;6.600;2022-12-18T10:54:14;7.70;;;6.43;;
59770;SDS011;45649;53.014;6.600;2022-12-18T10:56:41;8.03;;;6.20;;
59770;SDS011;45649;53.014;6.600;2022-12-18T10:59:08;9.43;;;7.63;;
59770;SDS011;45649;53.014;6.600;2022-12-18T11:01:48;10.23;;;7.60;;
59770;SDS011;45649;53.014;6.600;2022-12-18T11:04:16;10.87;;;8.53;;
59770;SDS011;45649;53.014;6.600;2022-12-18T11:09:31;11.00;;;8.60;;
59770;SDS011;45649;53.014;6.600;2022-12-18T11:12:00;9.60;;;8.30;;
59770;SDS011;45649;53.014;6.600;2022-12-18T11:14:29;11.30;;;9.30;;
59770;SDS011;45649;53.014;6.600;2022-12-18T11:16:57;9.90;;;8.80;;
59770;SDS011;45649;53.014;6.600;2022-12-18T11:19:36;11.13;;;8.93;;
59770;SDS011;45649;53.014;6.600;2022-12-18T11:22:19;12.77;;;8.90;;
59770;SDS011;45649;53.014;6.600;2022-12-18T11:24:52;10.20;;;8.57;;
59770;SDS011;45649;53.014;6.600;2022-12-18T11:27:19;11.37;;;8.77;;
59770;SDS011;45649;53.014;6.600;2022-12-18T11:29:45;10.27;;;8.63;;
59770;SDS011;45649;53.014;6.600;2022-12-18T11:34:47;10.33;;;8.80;;
59770;SDS011;45649;53.014;6.600;2022-12-18T11:37:15;14.00;;;10.80;;
59770;SDS011;45649;53.014;6.600;2022-12-18T11:39:56;14.13;;;10.33;;
59770;SDS011;45649;53.014;6.600;2022-12-18T11:42:26;10.33;;;8.73;;
59770;SDS011;45649;53.014;6.600;2022-12-18T11:45:18;10.20;;;8.90;;
59770;SDS011;45649;53.014;6.600;2022-12-18T11:50:19;9.77;;;8.17;;
59770;SDS011;45649;53.014;6.600;2022-12-18T11:52:47;10.73;;;7.60;;
59770;SDS011;45649;53.014;6.600;2022-12-18T11:55:14;11.17;;;8.50;;
59770;SDS011;45649;53.014;6.600;2022-12-18T11:57:48;10.03;;;8.53;;
59770;SDS011;45649;53.014;6.600;2022-12-18T12:00:20;11.43;;;8.30;;
59770;SDS011;45649;53.014;6.600;2022-12-18T12:07:53;8.10;;;7.30;;
59770;SDS011;45649;53.014;6.600;2022-12-18T12:13:14;9.53;;;8.23;;
59770;SDS011;45649;53.014;6.600;2022-12-18T12:15:45;9.17;;;8.13;;
59770;SDS011;45649;53.014;6.600;2022-12-18T12:18:36;9.53;;;7.77;;
59770;SDS011;45649;53.014;6.600;2022-12-18T12:21:11;8.83;;;7.40;;
59770;SDS011;45649;53.014;6.600;2022-12-18T12:26:08;10.00;;;8.17;;
59770;SDS011;45649;53.014;6.600;2022-12-18T12:31:12;9.87;;;8.37;;
59770;SDS011;45649;53.014;6.600;2022-12-18T12:36:10;11.27;;;9.33;;
59770;SDS011;45649;53.014;6.600;2022-12-18T12:38:44;11.20;;;8.37;;
59770;SDS011;45649;53.014;6.600;2022-12-18T12:41:16;12.20;;;8.67;;
59770;SDS011;45649;53.014;6.600;2022-12-18T12:44:03;9.50;;;8.13;;
59770;SDS011;45649;53.014;6.600;2022-12-18T12:46:31;19.03;;;16.00;;
59770;SDS011;45649;53.014;6.600;2022-12-18T12:48:59;9.33;;;7.80;;
59770;SDS011;45649;53.014;6.600;2022-12-18T12:51:40;9.63;;;8.13;;
59770;SDS011;45649;53.014;6.600;2022-12-18T12:54:12;43.27;;;36.30;;
59770;SDS011;45649;53.014;6.600;2022-12-18T12:56:43;9.50;;;7.70;;
59770;SDS011;45649;53.014;6.600;2022-12-18T13:01:54;9.90;;;7.13;;
59770;SDS011;45649;53.014;6.600;2022-12-18T13:06:52;7.33;;;6.63;;
59770;SDS011;45649;53.014;6.600;2022-12-18T13:09:20;7.80;;;7.00;;
59770;SDS011;45649;53.014;6.600;2022-12-18T13:11:47;8.23;;;7.03;;
59770;SDS011;45649;53.014;6.600;2022-12-18T13:14:36;8.00;;;7.10;;
59770;SDS011;45649;53.014;6.600;2022-12-18T13:19:55;7.40;;;6.70;;
59770;SDS011;45649;53.014;6.600;2022-12-18T13:22:29;9.50;;;7.10;;
59770;SDS011;45649;53.014;6.600;2022-12-18T13:24:57;8.43;;;7.60;;
59770;SDS011;45649;53.014;6.600;2022-12-18T13:35:38;8.83;;;6.97;;
59770;SDS011;45649;53.014;6.600;2022-12-18T13:38:19;7.90;;;7.10;;
59770;SDS011;45649;53.014;6.600;2022-12-18T13:48:25;8.80;;;7.20;;
59770;SDS011;45649;53.014;6.600;2022-12-18T13:50:57;7.53;;;6.50;;
59770;SDS011;45649;53.014;6.600;2022-12-18T13:53:28;8.50;;;7.00;;
59770;SDS011;45649;53.014;6.600;2022-12-18T13:55:55;8.80;;;6.37;;
59770;SDS011;45649;53.014;6.600;2022-12-18T13:58:22;7.30;;;6.60;;
59770;SDS011;45649;53.014;6.600;2022-12-18T14:00:48;7.50;;;6.80;;
59770;SDS011;45649;53.014;6.600;2022-12-18T14:03:24;7.50;;;6.70;;
59770;SDS011;45649;53.014;6.600;2022-12-18T14:06:04;7.73;;;6.30;;
59770;SDS011;45649;53.014;6.600;2022-12-18T14:08:49;8.70;;;7.00;;
59770;SDS011;45649;53.014;6.600;2022-12-18T14:11:20;7.07;;;6.37;;
59770;SDS011;45649;53.014;6.600;2022-12-18T14:13:48;7.67;;;6.43;;
59770;SDS011;45649;53.014;6.600;2022-12-18T14:16:15;9.00;;;6.90;;
59770;SDS011;45649;53.014;6.600;2022-12-18T14:21:22;7.50;;;6.70;;
59770;SDS011;45649;53.014;6.600;2022-12-18T14:23:49;7.03;;;6.30;;
59770;SDS011;45649;53.014;6.600;2022-12-18T14:26:29;8.80;;;6.57;;
59770;SDS011;45649;53.014;6.600;2022-12-18T14:28:59;7.00;;;6.33;;
59770;SDS011;45649;53.014;6.600;2022-12-18T14:31:28;7.77;;;6.40;;
59770;SDS011;45649;53.014;6.600;2022-12-18T14:33:54;7.40;;;6.30;;
59770;SDS011;45649;53.014;6.600;2022-12-18T14:36:25;7.20;;;6.50;;
59770;SDS011;45649;53.014;6.600;2022-12-18T14:38:55;8.20;;;7.00;;
59770;SDS011;45649;53.014;6.600;2022-12-18T14:41:23;7.93;;;7.13;;
59770;SDS011;45649;53.014;6.600;2022-12-18T14:43:50;7.40;;;6.40;;
59770;SDS011;45649;53.014;6.600;2022-12-18T14:48:58;8.90;;;6.90;;
59770;SDS011;45649;53.014;6.600;2022-12-18T14:51:28;7.80;;;7.00;;
59770;SDS011;45649;53.014;6.600;2022-12-18T14:53:59;8.13;;;7.00;;
59770;SDS011;45649;53.014;6.600;2022-12-18T14:56:27;7.93;;;7.13;;
59770;SDS011;45649;53.014;6.600;2022-12-18T14:59:00;7.67;;;6.97;;
59770;SDS011;45649;53.014;6.600;2022-12-18T15:01:28;8.73;;;7.37;;
59770;SDS011;45649;53.014;6.600;2022-12-18T15:03:55;7.97;;;6.90;;
59770;SDS011;45649;53.014;6.600;2022-12-18T15:06:26;8.90;;;7.70;;
59770;SDS011;45649;53.014;6.600;2022-12-18T15:08:53;8.57;;;7.33;;
59770;SDS011;45649;53.014;6.600;2022-12-18T15:11:26;10.03;;;7.17;;
59770;SDS011;45649;53.014;6.600;2022-12-18T15:13:52;8.40;;;7.60;;
59770;SDS011;45649;53.014;6.600;2022-12-18T15:16:18;8.83;;;7.93;;
59770;SDS011;45649;53.014;6.600;2022-12-18T15:18:45;10.50;;;8.03;;
59770;SDS011;45649;53.014;6.600;2022-12-18T15:21:16;9.20;;;8.00;;
59770;SDS011;45649;53.014;6.600;2022-12-18T15:26:09;9.30;;;8.20;;
59770;SDS011;45649;53.014;6.600;2022-12-18T15:28:37;9.13;;;7.80;;
59770;SDS011;45649;53.014;6.600;2022-12-18T15:31:20;9.20;;;8.30;;
59770;SDS011;45649;53.014;6.600;2022-12-18T15:36:20;9.83;;;8.47;;
59770;SDS011;45649;53.014;6.600;2022-12-18T15:38:47;9.83;;;7.97;;
59770;SDS011;45649;53.014;6.600;2022-12-18T15:41:13;10.10;;;8.67;;
59770;SDS011;45649;53.014;6.600;2022-12-18T15:43:40;11.90;;;8.87;;
59770;SDS011;45649;53.014;6.600;2022-12-18T15:46:08;11.47;;;9.07;;
59770;SDS011;45649;53.014;6.600;2022-12-18T15:48:36;10.27;;;8.97;;
59770;SDS011;45649;53.014;6.600;2022-12-18T15:51:04;9.73;;;8.70;;
59770;SDS011;45649;53.014;6.600;2022-12-18T15:53:31;9.60;;;8.60;;
59770;SDS011;45649;53.014;6.600;2022-12-18T15:55:58;10.90;;;9.20;;
59770;SDS011;45649;53.014;6.600;2022-12-18T15:58:43;11.43;;;9.20;;
59770;SDS011;45649;53.014;6.600;2022-12-18T16:01:09;10.37;;;9.27;;
59770;SDS011;45649;53.014;6.600;2022-12-18T16:03:36;11.87;;;9.03;;